Time;durP1;ratioP1;P1;durP2;ratioP2;P2;SDS_P1;SDS_P2;PMS_P1;PMS_P2;Temp;Humidity;BMP_temperature;BMP_pressure;BME280_temperature;BME280_humidity;BME280_pressure;Samples;Min_cycle;Max_cycle;Signal;HPM_P1;HPM_P2
2021/10/22 00:01:41;;;;;;;8.02;1.80;;;;;;;8.27;65.66;101557.09;5074843;28;20043;-62
2021/10/22 00:04:06;;;;;;;6.90;1.58;;;;;;;8.25;65.53;101553.66;5075159;28;20024;-64
2021/10/22 00:06:31;;;;;;;9.77;2.30;;;;;;;8.19;66.62;101553.78;5075263;28;20082;-63
2021/10/22 00:08:57;;;;;;;9.30;2.08;;;;;;;8.15;66.01;101557.41;5074794;28;20050;-62
2021/10/22 00:11:22;;;;;;;7.70;1.40;;;;;;;8.14;66.63;101561.78;5074859;28;20102;-64
2021/10/22 00:13:47;;;;;;;7.90;2.08;;;;;;;8.16;66.69;101554.72;5075091;28;20107;-59
2021/10/22 00:16:12;;;;;;;12.65;2.25;;;;;;;8.16;65.61;101549.44;5074838;28;20070;-59
2021/10/22 00:18:38;;;;;;;12.85;1.98;;;;;;;8.14;66.44;101550.38;5074429;28;20058;-51
2021/10/22 00:21:03;;;;;;;10.55;1.50;;;;;;;8.14;65.74;101559.16;5074500;28;20025;-60
2021/10/22 00:23:28;;;;;;;7.88;1.95;;;;;;;8.10;66.21;101559.28;5075001;28;20028;-59
2021/10/22 00:25:54;;;;;;;9.52;1.80;;;;;;;8.04;66.68;101562.91;5074715;28;20033;-61
2021/10/22 00:28:19;;;;;;;9.82;1.70;;;;;;;8.00;66.53;101563.88;5074466;28;20056;-60
2021/10/22 00:30:45;;;;;;;10.55;2.03;;;;;;;7.98;66.57;101557.75;5074353;28;20084;-64
2021/10/22 00:33:10;;;;;;;9.32;1.77;;;;;;;7.92;67.16;101553.50;5074604;28;20054;-63
2021/10/22 00:35:35;;;;;;;12.77;2.60;;;;;;;7.95;66.49;101545.50;5074405;28;20082;-59
2021/10/22 00:38:01;;;;;;;4.10;1.60;;;;;;;7.98;66.50;101556.00;5074628;28;20047;-61
2021/10/22 00:40:26;;;;;;;5.45;1.98;;;;;;;7.95;67.02;101550.78;5055889;28;20048;-59
2021/10/22 00:42:54;;;;;;;11.10;1.80;;;;;;;7.95;65.18;101542.03;5074141;28;20031;-59
2021/10/22 00:45:20;;;;;;;9.05;1.67;;;;;;;8.10;65.99;101548.72;5073993;28;20043;-59
2021/10/22 00:47:46;;;;;;;7.75;1.90;;;;;;;8.14;64.85;101547.75;5074561;28;20380;-63
2021/10/22 00:50:11;;;;;;;8.65;1.88;;;;;;;8.09;66.19;101544.34;5074166;28;20524;-62
2021/10/22 00:52:37;;;;;;;11.30;2.13;;;;;;;8.04;65.78;101542.69;5073645;28;21592;-63
2021/10/22 00:55:03;;;;;;;6.38;1.95;;;;;;;8.02;66.48;101535.72;5074194;28;20060;-55
2021/10/22 00:57:29;;;;;;;7.63;1.50;;;;;;;8.03;65.49;101545.34;5074478;28;20052;-59
2021/10/22 00:59:54;;;;;;;8.68;1.75;;;;;;;8.03;65.81;101545.34;5073985;28;20059;-58
2021/10/22 01:02:20;;;;;;;10.73;1.80;;;;;;;8.11;65.39;101553.09;5073843;28;20024;-60
2021/10/22 01:04:45;;;;;;;9.00;1.63;;;;;;;8.19;64.53;101545.88;5073863;28;20032;-60
2021/10/22 01:07:14;;;;;;;8.05;1.85;;;;;;;8.20;64.95;101551.09;5073464;28;20024;-60
2021/10/22 01:09:41;;;;;;;10.02;1.80;;;;;;;8.19;65.29;101546.72;5073537;28;20032;-59
2021/10/22 01:12:07;;;;;;;7.28;1.90;;;;;;;8.25;64.58;101551.00;5073324;28;20393;-59
2021/10/22 01:14:32;;;;;;;11.25;1.90;;;;;;;8.27;66.30;101550.97;5074103;28;20028;-63
2021/10/22 01:16:58;;;;;;;5.13;1.80;;;;;;;8.25;65.96;101539.56;5074089;28;20025;-64
2021/10/22 01:19:23;;;;;;;6.65;1.70;;;;;;;8.24;66.36;101541.34;5073375;28;20107;-64
2021/10/22 01:21:49;;;;;;;9.90;2.13;;;;;;;8.23;66.42;101536.13;5073454;28;20031;-63
2021/10/22 01:24:16;;;;;;;9.02;2.20;;;;;;;8.31;65.74;101535.03;5073621;28;20024;-64
2021/10/22 01:26:42;;;;;;;11.50;2.10;;;;;;;8.36;66.91;101533.16;5073383;28;20025;-60
2021/10/22 01:29:08;;;;;;;10.35;1.85;;;;;;;8.49;66.27;101527.56;5072961;28;20107;-60
2021/10/22 01:31:34;;;;;;;9.57;1.95;;;;;;;8.61;66.12;101527.28;5073281;28;20115;-60
2021/10/22 01:33:59;;;;;;;8.90;1.90;;;;;;;8.55;66.29;101518.66;5073294;28;20024;-59
2021/10/22 01:36:26;;;;;;;9.75;2.00;;;;;;;8.60;65.92;101514.13;5073644;28;20025;-59
2021/10/22 01:38:52;;;;;;;11.23;1.92;;;;;;;8.62;66.73;101517.56;5073113;28;20448;-63
2021/10/22 01:41:17;;;;;;;11.77;2.10;;;;;;;8.60;66.76;101514.97;5072913;28;20111;-62
2021/10/22 01:43:43;;;;;;;12.77;2.72;;;;;;;8.59;66.97;101509.75;5072694;28;20090;-64
2021/10/22 01:46:10;;;;;;;10.98;2.05;;;;;;;8.67;66.57;101507.75;5073148;28;20028;-64
2021/10/22 01:48:36;;;;;;;12.93;1.90;;;;;;;8.69;67.16;101503.31;5073204;28;20419;-59
2021/10/22 01:51:02;;;;;;;9.68;1.90;;;;;;;8.74;66.26;101493.50;5073085;28;20077;-62
2021/10/22 01:53:28;;;;;;;19.23;3.53;;;;;;;8.77;67.11;101500.47;5072887;28;20114;-59
2021/10/22 01:55:53;;;;;;;8.98;2.00;;;;;;;8.69;67.20;101500.66;5072607;28;20062;-60
2021/10/22 01:58:19;;;;;;;10.38;2.28;;;;;;;8.69;67.52;101493.59;5073233;28;20377;-60
2021/10/22 02:00:44;;;;;;;11.85;2.08;;;;;;;8.80;67.68;101495.13;5072753;28;20016;-61
2021/10/22 02:03:10;;;;;;;13.05;2.45;;;;;;;8.85;67.68;101496.72;5073077;28;20040;-59
2021/10/22 02:05:36;;;;;;;8.35;1.77;;;;;;;8.89;66.27;101491.34;5072457;28;20021;-60
2021/10/22 02:08:01;;;;;;;9.20;1.80;;;;;;;8.88;67.34;101489.63;5073128;28;20063;-63
2021/10/22 02:10:27;;;;;;;10.10;1.90;;;;;;;8.86;68.53;101494.94;5072507;28;20053;-64
2021/10/22 02:12:52;;;;;;;9.18;1.65;;;;;;;8.84;68.31;101494.13;5072412;28;20081;-59
2021/10/22 02:15:17;;;;;;;6.93;1.60;;;;;;;8.85;68.48;101487.94;5072825;28;20028;-61
2021/10/22 02:17:43;;;;;;;14.75;3.17;;;;;;;8.80;69.40;101487.19;5071772;28;20119;-63
2021/10/22 02:20:09;;;;;;;14.52;2.70;;;;;;;8.75;69.43;101487.31;5072933;28;20023;-63
2021/10/22 02:22:35;;;;;;;7.28;1.92;;;;;;;8.80;69.67;101490.69;5072208;28;20366;-61
2021/10/22 02:25:00;;;;;;;9.65;1.73;;;;;;;8.91;68.97;101478.97;5072480;28;20096;-60
2021/10/22 02:27:25;;;;;;;12.10;1.90;;;;;;;8.94;69.67;101476.22;5072275;28;20059;-59
2021/10/22 02:29:51;;;;;;;12.38;2.20;;;;;;;8.96;70.12;101479.69;5072372;28;20485;-60
2021/10/22 02:32:16;;;;;;;10.57;1.95;;;;;;;8.96;70.80;101477.91;5072716;28;20024;-61
2021/10/22 02:34:41;;;;;;;9.30;1.88;;;;;;;9.04;69.78;101472.44;5072210;28;20057;-59
2021/10/22 02:37:07;;;;;;;10.38;1.65;;;;;;;9.14;69.01;101479.19;5072503;28;20112;-60
2021/10/22 02:39:36;;;;;;;9.15;1.70;;;;;;;9.13;69.58;101482.75;5071857;28;20056;-60
2021/10/22 02:42:01;;;;;;;11.10;2.25;;;;;;;9.13;70.24;101476.56;5072411;28;20455;-60
2021/10/22 02:44:27;;;;;;;9.82;2.42;;;;;;;9.11;70.31;101476.63;5072326;28;20052;-62
2021/10/22 02:46:53;;;;;;;9.35;1.60;;;;;;;9.14;70.70;101466.00;5072591;28;20096;-62
2021/10/22 02:49:18;;;;;;;8.65;1.90;;;;;;;9.18;71.30;101462.34;5072117;28;20468;-63
2021/10/22 02:51:43;;;;;;;11.48;2.45;;;;;;;9.24;71.29;101471.84;5072349;28;20103;-64
2021/10/22 02:54:09;;;;;;;7.95;1.63;;;;;;;9.35;71.54;101461.84;5072162;28;20025;-59
2021/10/22 02:56:34;;;;;;;9.20;1.90;;;;;;;9.38;71.49;101462.66;5072093;28;20146;-63
2021/10/22 02:58:59;;;;;;;10.88;1.80;;;;;;;9.37;71.46;101461.78;5071929;28;20056;-61
2021/10/22 03:01:25;;;;;;;14.00;2.10;;;;;;;9.44;71.29;101457.19;5071765;28;20043;-63
2021/10/22 03:03:50;;;;;;;10.70;2.08;;;;;;;9.45;71.66;101466.84;5072324;28;20032;-60
2021/10/22 03:06:17;;;;;;;9.55;2.00;;;;;;;9.38;71.76;101471.44;5071788;28;20032;-62
2021/10/22 03:08:43;;;;;;;7.78;1.70;;;;;;;9.37;72.04;101460.94;5072361;28;20461;-60
2021/10/22 03:11:08;;;;;;;7.18;1.60;;;;;;;9.30;71.86;101470.81;5071542;28;20025;-63
2021/10/22 03:13:34;;;;;;;8.20;1.63;;;;;;;9.32;72.00;101461.06;5072384;28;20029;-60
2021/10/22 03:15:59;;;;;;;8.98;1.55;;;;;;;9.35;72.11;101460.97;5071669;28;20024;-59
2021/10/22 03:18:24;;;;;;;8.95;1.45;;;;;;;9.40;72.24;101467.00;5072003;28;20050;-61
2021/10/22 03:20:50;;;;;;;9.57;1.85;;;;;;;9.39;72.68;101451.19;5071833;28;20074;-63
2021/10/22 03:23:15;;;;;;;9.93;2.10;;;;;;;9.45;72.10;101456.25;5071980;28;20028;-63
2021/10/22 03:25:41;;;;;;;7.43;1.50;;;;;;;9.47;72.51;101457.94;5053369;28;20037;-62
2021/10/22 03:28:06;;;;;;;7.60;1.65;;;;;;;9.52;72.53;101444.59;5071637;28;20032;-60
2021/10/22 03:30:33;;;;;;;9.18;1.67;;;;;;;9.58;72.35;101452.34;5074582;28;20049;-60
2021/10/22 03:33:00;;;;;;;10.15;2.25;;;;;;;9.55;72.40;101439.22;5075046;28;20480;-63
2021/10/22 03:35:25;;;;;;;6.93;1.83;;;;;;;9.60;72.04;101457.59;5075590;28;20051;-63
2021/10/22 03:37:51;;;;;;;6.53;1.30;;;;;;;9.65;71.04;101459.19;5075696;28;20050;-60
2021/10/22 03:40:16;;;;;;;7.78;1.50;;;;;;;9.66;71.40;101454.75;5075968;28;20025;-62
2021/10/22 03:42:43;;;;;;;10.43;1.80;;;;;;;9.78;70.64;101449.09;5075162;28;20028;-63
2021/10/22 03:45:09;;;;;;;9.25;1.67;;;;;;;9.80;71.09;101447.25;5075537;28;20099;-63
2021/10/22 03:47:34;;;;;;;8.85;1.95;;;;;;;9.79;72.53;101447.28;5075306;28;20028;-64
2021/10/22 03:50:00;;;;;;;9.90;2.47;;;;;;;9.77;73.01;101447.34;5075444;28;20029;-63
2021/10/22 03:52:25;;;;;;;11.45;2.00;;;;;;;9.75;72.99;101450.97;5075147;28;20108;-64
2021/10/22 03:54:51;;;;;;;10.65;2.28;;;;;;;9.67;74.31;101444.13;5075584;28;20099;-58
2021/10/22 03:57:16;;;;;;;10.70;2.10;;;;;;;9.66;73.43;101447.69;5074718;28;20538;-63
2021/10/22 03:59:41;;;;;;;11.98;2.25;;;;;;;9.67;72.77;101440.63;5075206;28;20052;-64
2021/10/22 04:02:07;;;;;;;10.75;1.73;;;;;;;9.72;71.76;101449.28;5074970;28;20078;-59
2021/10/22 04:04:32;;;;;;;8.32;1.77;;;;;;;9.74;72.01;101451.88;5074952;28;20047;-61
2021/10/22 04:07:00;;;;;;;12.55;2.33;;;;;;;9.76;72.03;101458.00;5075151;28;20030;-59
2021/10/22 04:09:26;;;;;;;9.18;1.90;;;;;;;9.86;71.19;101453.25;5074956;28;20028;-60
2021/10/22 04:11:52;;;;;;;8.35;2.40;;;;;;;9.89;71.16;101447.88;5075093;28;20108;-63
2021/10/22 04:14:19;;;;;;;7.93;2.10;;;;;;;9.95;70.65;101467.06;5074303;28;20111;-60
2021/10/22 04:16:44;;;;;;;14.43;2.20;;;;;;;9.91;70.98;101481.31;5074685;28;20025;-62
2021/10/22 04:19:09;;;;;;;6.30;1.67;;;;;;;9.87;70.60;101484.09;5074584;28;20025;-61
2021/10/22 04:21:35;;;;;;;17.70;2.42;;;;;;;9.89;69.45;101483.13;5074877;28;20388;-61
2021/10/22 04:24:00;;;;;;;4.53;1.60;;;;;;;9.90;69.04;101502.50;5074969;28;20112;-61
2021/10/22 04:26:25;;;;;;;7.47;1.90;;;;;;;9.81;68.44;101482.50;5074864;28;20024;-59
2021/10/22 04:28:51;;;;;;;9.35;1.80;;;;;;;9.72;69.03;101483.66;5073811;28;20025;-62
2021/10/22 04:31:16;;;;;;;10.73;1.90;;;;;;;9.72;68.69;101488.94;5074385;28;20511;-63
2021/10/22 04:33:41;;;;;;;7.78;1.60;;;;;;;9.77;68.23;101499.38;5074588;28;20032;-63
2021/10/22 04:36:09;;;;;;;8.88;1.60;;;;;;;9.79;67.62;101492.25;5074804;28;20033;-59
2021/10/22 04:41:18;;;;;;;8.35;1.90;;;;;;;9.83;67.29;101489.50;5074142;28;20389;-63
2021/10/22 04:43:43;;;;;;;17.20;2.40;;;;;;;9.79;67.09;101502.84;5074025;28;20025;-59
2021/10/22 04:46:09;;;;;;;7.15;1.70;;;;;;;9.76;66.45;101509.09;5074067;28;20020;-59
2021/10/22 04:48:34;;;;;;;8.35;1.90;;;;;;;9.91;65.80;101493.66;5074082;28;20024;-59
2021/10/22 04:51:00;;;;;;;6.15;1.65;;;;;;;9.91;66.85;101496.28;5073849;28;20465;-63
2021/10/22 04:53:26;;;;;;;7.50;1.63;;;;;;;9.91;67.54;101491.88;5073833;28;20031;-64
2021/10/22 04:55:53;;;;;;;5.32;1.50;;;;;;;9.91;67.55;101477.78;5074119;28;20025;-63
2021/10/22 04:58:18;;;;;;;11.10;2.28;;;;;;;9.93;68.45;101478.59;5073615;28;20028;-61
2021/10/22 05:00:43;;;;;;;21.35;4.22;;;;;;;9.95;69.07;101482.09;5073450;28;20421;-59
2021/10/22 05:03:09;;;;;;;9.10;2.22;;;;;;;9.93;69.66;101468.88;5074173;28;20028;-62
2021/10/22 05:05:34;;;;;;;8.23;1.40;;;;;;;9.96;69.11;101466.16;5074297;28;20029;-60
2021/10/22 05:07:59;;;;;;;10.30;1.58;;;;;;;10.00;69.45;101445.75;5073776;28;20013;-58
2021/10/22 05:10:24;;;;;;;6.60;1.40;;;;;;;9.94;70.25;101448.59;5073446;28;20029;-58
2021/10/22 05:12:50;;;;;;;8.10;1.58;;;;;;;9.97;70.20;101472.28;5073730;28;20032;-60
2021/10/22 05:15:15;;;;;;;8.57;1.52;;;;;;;9.96;72.15;101463.50;5073339;28;20020;-60
2021/10/22 05:17:41;;;;;;;9.52;1.95;;;;;;;9.76;75.96;101471.22;5073350;28;20039;-57
2021/10/22 05:20:08;;;;;;;6.30;1.60;;;;;;;9.56;77.04;101467.38;5073523;28;20033;-60
2021/10/22 05:22:36;;;;;;;7.90;1.67;;;;;;;9.32;78.33;101446.09;5073605;28;20028;-59
2021/10/22 05:25:01;;;;;;;8.57;1.70;;;;;;;9.17;80.15;101443.91;5073415;28;20107;-60
2021/10/22 05:27:26;;;;;;;5.72;1.60;;;;;;;9.06;79.90;101440.69;5073434;28;20112;-58
2021/10/22 05:29:52;;;;;;;6.93;1.70;;;;;;;8.93;79.88;101427.84;5072760;28;20051;-58
2021/10/22 05:32:17;;;;;;;6.93;1.85;;;;;;;8.90;78.88;101430.56;5072849;28;20465;-58
2021/10/22 05:34:42;;;;;;;7.25;1.83;;;;;;;8.81;78.61;101433.44;5073383;28;20082;-59
2021/10/22 05:37:08;;;;;;;13.48;2.00;;;;;;;8.83;77.43;101436.94;5073258;28;20104;-58
2021/10/22 05:39:33;;;;;;;7.15;1.65;;;;;;;8.94;75.16;101431.31;5072709;28;20074;-58
2021/10/22 05:41:59;;;;;;;7.75;1.40;;;;;;;9.07;72.98;101432.72;5073544;28;20017;-60
2021/10/22 05:44:24;;;;;;;9.10;1.63;;;;;;;9.15;73.04;101437.78;5072861;28;20051;-58
2021/10/22 05:46:54;;;;;;;10.18;2.17;;;;;;;9.22;72.81;101441.97;5072844;28;20029;-59
2021/10/22 05:49:21;;;;;;;7.75;2.22;;;;;;;9.28;71.49;101430.34;5072875;28;20024;-60
2021/10/22 05:51:47;;;;;;;15.45;2.03;;;;;;;9.32;70.97;101427.59;5072339;28;20457;-63
2021/10/22 05:54:13;;;;;;;6.72;1.50;;;;;;;9.34;70.38;101416.97;5071607;28;20032;-57
2021/10/22 05:56:39;;;;;;;8.60;2.08;;;;;;;9.40;71.09;101426.47;5072981;28;20020;-61
2021/10/22 05:59:04;;;;;;;7.53;1.77;;;;;;;9.46;70.08;101421.88;5073064;28;20111;-59
2021/10/22 06:01:30;;;;;;;8.23;1.58;;;;;;;9.50;69.28;101428.78;5072158;28;20098;-58
2021/10/22 06:03:56;;;;;;;8.40;1.80;;;;;;;9.47;69.93;101428.00;5072250;28;20031;-59
2021/10/22 06:06:22;;;;;;;11.85;2.15;;;;;;;9.35;71.13;101427.47;5071880;28;20491;-58
2021/10/22 06:08:47;;;;;;;7.97;1.77;;;;;;;9.29;71.00;101432.09;5073099;28;20016;-59
2021/10/22 06:11:13;;;;;;;10.48;2.20;;;;;;;9.22;70.33;101439.34;5071965;28;20031;-58
2021/10/22 06:13:39;;;;;;;8.45;1.83;;;;;;;9.22;68.88;101443.75;5072521;28;20029;-59
2021/10/22 06:16:05;;;;;;;8.30;1.65;;;;;;;9.34;66.60;101438.09;5072336;28;20469;-59
2021/10/22 06:18:31;;;;;;;10.93;2.03;;;;;;;9.40;67.41;101439.69;5072360;28;20082;-59
2021/10/22 06:21:08;;;;;;;6.60;1.85;;;;;;;9.38;67.51;101441.53;5072373;28;20028;-60
2021/10/22 06:26:17;;;;;;;10.30;2.03;;;;;;;9.44;68.86;101434.25;5072219;28;20068;-58
2021/10/22 06:28:43;;;;;;;13.90;2.10;;;;;;;9.43;68.79;101443.09;5072741;28;20469;-60
2021/10/22 06:31:11;;;;;;;7.40;2.15;;;;;;;9.52;68.64;101428.75;5072173;28;20051;-59
2021/10/22 06:33:37;;;;;;;9.30;1.92;;;;;;;9.43;70.06;101447.53;5065675;28;21648;-50
2021/10/22 06:36:03;;;;;;;13.50;2.22;;;;;;;9.31;70.23;101441.69;5072100;28;20020;-51
2021/10/22 06:38:28;;;;;;;8.82;2.00;;;;;;;9.26;69.75;101451.53;5073095;28;20063;-57
2021/10/22 06:40:54;;;;;;;6.70;1.70;;;;;;;9.38;68.55;101441.53;5072605;28;20040;-58
2021/10/22 06:43:23;;;;;;;10.95;1.95;;;;;;;9.44;68.20;101449.28;5072049;28;20032;-57
2021/10/22 06:45:50;;;;;;;8.27;1.98;;;;;;;9.44;68.91;101449.28;5072239;28;20043;-56
2021/10/22 06:48:16;;;;;;;12.10;2.42;;;;;;;9.39;68.78;101425.59;5081562;28;20443;-60
2021/10/22 06:50:42;;;;;;;12.75;2.25;;;;;;;9.45;69.00;101441.28;5074729;28;20068;-58
2021/10/22 06:53:08;;;;;;;10.68;2.03;;;;;;;9.40;69.36;101451.13;5072087;28;20060;-57
2021/10/22 06:55:34;;;;;;;14.52;2.20;;;;;;;9.41;69.64;101450.22;5072406;28;20027;-56
2021/10/22 06:57:59;;;;;;;6.90;1.90;;;;;;;9.44;69.32;101441.34;5071781;28;20468;-54
2021/10/22 07:00:26;;;;;;;13.45;2.47;;;;;;;9.43;70.42;101450.19;5072201;28;20070;-53
2021/10/22 07:02:55;;;;;;;7.97;1.70;;;;;;;9.52;69.22;101455.19;5068712;28;20108;-59
2021/10/22 07:07:14;;;;;;;12.45;1.90;;;;;;;9.57;68.60;101455.06;5072377;28;20020;-58
2021/10/22 07:08:11;;;;;;;7.55;1.58;;;;;;;9.68;66.22;101461.72;5065660;28;20035;-62
2021/10/22 07:10:37;;;;;;;10.95;1.77;;;;;;;9.79;66.46;101464.03;5075829;28;20082;-55
2021/10/22 07:13:06;;;;;;;12.68;1.95;;;;;;;9.82;66.69;101458.66;5075560;28;20024;-62
2021/10/22 07:15:32;;;;;;;10.05;1.90;;;;;;;9.91;65.78;101464.56;5075747;28;20041;-60
2021/10/22 07:18:00;;;;;;;6.30;1.80;;;;;;;10.03;65.74;101464.16;5075635;28;20066;-59
2021/10/22 07:20:27;;;;;;;13.07;2.22;;;;;;;10.10;65.03;101419.84;5075805;28;20028;-60
2021/10/22 07:22:55;;;;;;;10.02;2.30;;;;;;;10.17;66.43;101461.06;5076255;28;20114;-56
2021/10/22 07:25:23;;;;;;;9.23;1.60;;;;;;;10.22;65.82;101466.19;5076232;28;20040;-60
2021/10/22 07:27:50;;;;;;;13.80;2.03;;;;;;;10.19;66.70;101471.59;5075102;28;20025;-57
2021/10/22 07:30:16;;;;;;;8.45;1.90;;;;;;;10.17;67.74;101467.22;5074967;28;20487;-59
2021/10/22 07:32:41;;;;;;;12.60;1.85;;;;;;;10.15;67.56;101477.00;5075953;28;20021;-57
2021/10/22 07:35:08;;;;;;;10.48;2.13;;;;;;;10.16;68.13;101467.28;5075306;28;20021;-57
2021/10/22 07:37:34;;;;;;;11.20;2.10;;;;;;;10.26;67.97;101476.63;5075724;28;20055;-56
2021/10/22 07:40:00;;;;;;;9.63;1.85;;;;;;;10.24;68.80;101493.47;5075876;28;20028;-59
2021/10/22 07:42:26;;;;;;;11.25;2.47;;;;;;;10.26;68.96;101484.56;5075729;28;20020;-55
2021/10/22 07:44:57;;;;;;;16.45;2.47;;;;;;;10.37;68.00;101494.84;5075769;28;20024;-59
2021/10/22 07:47:23;;;;;;;15.40;2.50;;;;;;;10.51;68.11;101506.75;5075466;28;20097;-59
2021/10/22 07:49:50;;;;;;;9.02;1.92;;;;;;;10.54;67.34;101493.41;5074677;28;20020;-59
2021/10/22 07:52:20;;;;;;;12.32;2.10;;;;;;;10.63;67.45;101509.84;5075402;28;20025;-58
2021/10/22 07:54:45;;;;;;;13.27;2.17;;;;;;;10.73;67.76;101485.69;5075259;28;20029;-59
2021/10/22 07:57:12;;;;;;;13.40;2.30;;;;;;;10.73;66.21;101505.09;5074892;28;20044;-55
2021/10/22 07:59:37;;;;;;;9.38;1.90;;;;;;;10.64;66.56;101510.72;5075484;28;20065;-53
2021/10/22 08:02:02;;;;;;;8.50;1.90;;;;;;;10.66;66.19;101498.28;5075160;28;20028;-56
2021/10/22 08:04:28;;;;;;;16.13;2.10;;;;;;;10.61;66.93;101508.16;5075024;28;20029;-59
2021/10/22 08:06:54;;;;;;;18.00;3.25;;;;;;;10.61;67.83;101503.75;5075215;28;20028;-58
2021/10/22 08:09:20;;;;;;;13.93;2.08;;;;;;;10.80;66.58;101508.41;5076519;28;20085;-59
2021/10/22 08:11:45;;;;;;;10.20;1.90;;;;;;;10.98;66.37;101512.19;5080158;28;20032;-56
2021/10/22 08:14:10;;;;;;;12.32;2.30;;;;;;;11.10;66.06;101518.81;5074911;28;20045;-57
2021/10/22 08:16:36;;;;;;;12.80;2.35;;;;;;;11.16;65.98;101515.94;5073631;28;20112;-59
2021/10/22 08:19:01;;;;;;;18.48;2.50;;;;;;;11.21;65.15;101507.84;5074897;28;20020;-59
2021/10/22 08:24:06;;;;;;;16.73;2.30;;;;;;;11.38;64.71;101523.09;5075003;28;20051;-57
2021/10/22 08:26:31;;;;;;;15.85;3.08;;;;;;;11.36;64.33;101512.56;5074719;28;20032;-59
2021/10/22 08:28:57;;;;;;;14.40;2.00;;;;;;;11.34;65.13;101518.84;5074364;28;20115;-57
2021/10/22 08:31:22;;;;;;;13.02;1.92;;;;;;;11.33;65.72;101531.25;5073715;28;20055;-57
2021/10/22 08:33:48;;;;;;;14.65;2.10;;;;;;;11.15;66.49;101522.16;5074271;28;20020;-59
2021/10/22 08:36:13;;;;;;;10.35;2.00;;;;;;;11.19;66.78;101523.81;5074314;28;20029;-57
2021/10/22 08:38:39;;;;;;;15.50;2.72;;;;;;;11.21;66.94;101534.34;5073955;28;20032;-57
2021/10/22 08:41:09;;;;;;;9.40;2.25;;;;;;;11.22;66.98;101546.69;5073784;28;20099;-55
2021/10/22 08:43:34;;;;;;;13.98;2.35;;;;;;;11.15;67.47;101538.06;5081027;28;20029;-58
2021/10/22 08:46:00;;;;;;;13.63;2.22;;;;;;;11.15;67.41;101543.38;5074254;28;20078;-58
2021/10/22 08:48:28;;;;;;;10.93;2.00;;;;;;;11.23;66.89;101549.28;5074606;28;20166;-58
2021/10/22 08:50:55;;;;;;;10.77;2.08;;;;;;;11.23;66.84;101546.63;5074087;28;20024;-59
2021/10/22 08:53:22;;;;;;;12.50;3.13;;;;;;;11.36;66.11;101538.22;5074315;28;20016;-60
2021/10/22 08:55:47;;;;;;;11.57;2.03;;;;;;;11.35;65.49;101539.16;5074321;28;20021;-58
2021/10/22 08:58:13;;;;;;;10.15;2.22;;;;;;;11.31;66.24;101544.53;5073613;28;20036;-57
2021/10/22 09:00:38;;;;;;;12.48;2.60;;;;;;;11.46;65.81;101550.22;5074428;28;20468;-56
2021/10/22 09:03:12;;;;;;;9.40;1.92;;;;;;;11.43;66.96;101552.97;5075688;28;20613;-57
2021/10/22 09:05:55;;;;;;;11.07;2.13;;;;;;;11.59;66.64;101532.06;5087656;28;20074;-55
2021/10/22 09:08:37;;;;;;;8.85;1.95;;;;;;;11.76;66.07;101557.94;5064652;28;20393;-58
2021/10/22 09:11:05;;;;;;;8.65;1.70;;;;;;;12.23;64.41;101552.56;5072725;28;20064;-57
2021/10/22 09:13:33;;;;;;;8.98;1.90;;;;;;;13.55;59.43;101534.53;5073483;28;20115;-58
2021/10/22 09:16:00;;;;;;;10.65;2.47;;;;;;;13.92;58.92;101540.78;5073990;28;20020;-59
2021/10/22 09:18:31;;;;;;;19.23;2.90;;;;;;;13.58;59.84;101549.50;5074155;28;20025;-59
2021/10/22 09:20:59;;;;;;;9.20;2.00;;;;;;;12.82;62.41;101558.13;5074691;28;20074;-58
2021/10/22 09:23:33;;;;;;;10.60;2.30;;;;;;;12.38;64.09;101555.53;5072869;28;20040;-59
2021/10/22 09:26:22;;;;;;;10.27;2.20;;;;;;;13.02;63.21;101551.06;5073110;28;20408;-59
2021/10/22 09:28:49;;;;;;;13.65;2.35;;;;;;;12.90;62.68;101561.34;5073108;28;20062;-60
2021/10/22 09:31:19;;;;;;;11.32;2.50;;;;;;;12.65;64.49;101557.97;5072899;28;20052;-60
2021/10/22 09:33:57;;;;;;;10.55;2.10;;;;;;;12.32;65.44;101572.59;5073070;28;20104;-60
2021/10/22 09:36:35;;;;;;;10.50;1.73;;;;;;;12.19;65.88;101576.69;5071100;28;20135;-58
2021/10/22 09:39:08;;;;;;;10.90;1.75;;;;;;;13.02;63.75;101588.28;5073283;28;20025;-61
2021/10/22 09:41:47;;;;;;;10.32;2.38;;;;;;;13.21;63.23;101589.25;5073019;28;20549;-59
2021/10/22 09:44:27;;;;;;;16.73;2.40;;;;;;;12.72;64.23;101601.97;5089450;28;20038;-59
2021/10/22 09:47:11;;;;;;;7.50;2.05;;;;;;;12.47;64.50;101597.69;5070202;28;20032;-58
2021/10/22 09:49:42;;;;;;;9.30;1.92;;;;;;;13.00;64.55;101601.66;5059747;28;20096;-57
2021/10/22 09:52:27;;;;;;;10.32;2.08;;;;;;;13.43;62.62;101598.97;5077777;28;20020;-57
2021/10/22 09:55:12;;;;;;;8.77;1.85;;;;;;;13.32;62.08;101591.41;5083326;28;20025;-58
2021/10/22 09:57:39;;;;;;;11.55;2.33;;;;;;;12.82;63.95;101590.03;5092763;28;20035;-56
2021/10/22 10:00:10;;;;;;;11.73;2.35;;;;;;;12.38;65.56;101601.56;5075061;28;20032;-60
2021/10/22 10:02:36;;;;;;;12.90;2.40;;;;;;;12.63;64.85;101605.88;5093366;28;20024;-56
2021/10/22 10:05:07;;;;;;;9.65;2.58;;;;;;;12.46;66.55;101609.22;5093138;28;20031;-60
2021/10/22 10:07:40;;;;;;;13.35;2.42;;;;;;;12.37;68.09;101591.00;5079229;28;20112;-55
2021/10/22 10:10:07;;;;;;;12.35;2.28;;;;;;;12.19;67.65;101606.75;5072739;28;20511;-58
2021/10/22 10:12:38;;;;;;;15.55;2.42;;;;;;;12.06;68.42;101609.00;5072218;28;20031;-54
2021/10/22 10:15:04;;;;;;;14.38;2.50;;;;;;;11.91;70.02;101607.78;5072943;28;20037;-54
2021/10/22 10:17:34;;;;;;;9.57;2.42;;;;;;;11.90;71.48;101615.81;5072952;28;20031;-59
2021/10/22 10:20:01;;;;;;;7.05;2.03;;;;;;;11.85;71.49;101620.41;5072869;28;20029;-58
2021/10/22 10:22:31;;;;;;;15.90;2.47;;;;;;;11.84;72.41;101618.69;5067645;28;20416;-59
2021/10/22 10:24:58;;;;;;;11.27;2.80;;;;;;;11.87;71.32;101614.13;5066608;28;20253;-58
2021/10/22 10:27:25;;;;;;;8.30;2.50;;;;;;;11.94;70.98;101633.31;5074172;28;20031;-57
2021/10/22 10:30:05;;;;;;;14.13;2.00;;;;;;;12.13;69.52;101631.75;5093071;28;20048;-59
2021/10/22 10:32:33;;;;;;;13.10;2.60;;;;;;;12.74;66.70;101648.81;5072976;28;20505;-58
2021/10/22 10:34:59;;;;;;;11.13;2.70;;;;;;;12.64;66.08;101623.53;5075708;28;20110;-58
2021/10/22 10:37:29;;;;;;;13.52;2.35;;;;;;;12.42;67.48;101643.00;5091784;28;20020;-59
2021/10/22 10:39:57;;;;;;;11.82;2.20;;;;;;;12.35;67.47;101627.38;5072444;28;20025;-58
2021/10/22 10:42:43;;;;;;;16.15;2.65;;;;;;;12.17;68.30;101637.78;5072280;28;20046;-60
2021/10/22 10:45:21;;;;;;;12.13;2.03;;;;;;;12.36;68.29;101642.41;5072046;28;20025;-52
2021/10/22 10:48:02;;;;;;;11.48;2.42;;;;;;;12.75;66.82;101631.94;5052437;28;20032;-54
2021/10/22 10:50:33;;;;;;;10.18;2.13;;;;;;;12.40;68.96;101633.38;5071374;28;20174;-55
2021/10/22 10:53:00;;;;;;;12.10;3.05;;;;;;;12.25;70.77;101646.34;5068975;28;20043;-54
2021/10/22 10:55:33;;;;;;;15.88;2.53;;;;;;;12.45;69.62;101656.19;5071747;28;20078;-59
2021/10/22 10:58:08;;;;;;;11.63;2.50;;;;;;;12.60;67.78;101636.09;5079651;28;20433;-59
2021/10/22 11:00:35;;;;;;;10.25;3.22;;;;;;;12.58;67.80;101655.69;5068393;28;20111;-55
2021/10/22 11:03:03;;;;;;;13.43;2.35;;;;;;;12.45;67.84;101653.53;5071698;28;20111;-56
2021/10/22 11:05:44;;;;;;;13.45;2.60;;;;;;;12.39;68.13;101656.44;5075335;28;20051;-58
2021/10/22 11:08:31;;;;;;;11.13;2.28;;;;;;;12.34;68.52;101666.38;5075152;28;20400;-57
2021/10/22 11:11:17;;;;;;;10.50;2.20;;;;;;;12.27;67.79;101688.75;5073553;28;20552;-56
2021/10/22 11:13:50;;;;;;;16.20;2.63;;;;;;;12.12;71.29;101682.22;5072694;28;20090;-57
2021/10/22 11:16:32;;;;;;;11.75;2.70;;;;;;;11.87;72.22;101656.59;5084031;28;20028;-60
2021/10/22 11:18:58;;;;;;;13.43;2.28;;;;;;;11.66;73.67;101681.25;5092010;28;20039;-59
2021/10/22 11:21:24;;;;;;;10.63;2.42;;;;;;;11.70;73.53;101678.44;5090596;28;20036;-59
2021/10/22 11:23:50;;;;;;;12.85;2.60;;;;;;;11.56;74.46;101696.63;5072421;28;20100;-59
2021/10/22 11:26:19;;;;;;;9.00;2.35;;;;;;;11.45;73.78;101694.34;5071612;28;20031;-59
2021/10/22 11:28:52;;;;;;;10.30;1.95;;;;;;;11.52;73.38;101692.34;5072600;28;20020;-55
2021/10/22 11:31:37;;;;;;;10.30;2.08;;;;;;;11.50;71.90;101696.88;5070261;28;20052;-59
2021/10/22 11:34:04;;;;;;;8.63;2.10;;;;;;;11.45;73.01;101704.97;5071762;28;20756;-56
2021/10/22 11:36:30;;;;;;;13.55;1.98;;;;;;;12.33;69.75;101708.88;5072036;28;20021;-58